sensor_id;sensor_type;location;lat;lon;timestamp;P1;durP1;ratioP1;P2;durP2;ratioP2
69213;SDS011;56325;47.030;18.518;2023-07-02T00:02:06;4.97;;;4.65;;
69213;SDS011;56325;47.030;18.518;2023-07-02T00:04:41;5.43;;;4.95;;
69213;SDS011;56325;47.030;18.518;2023-07-02T00:07:17;4.78;;;4.37;;
69213;SDS011;56325;47.030;18.518;2023-07-02T00:09:52;9.63;;;4.70;;
69213;SDS011;56325;47.030;18.518;2023-07-02T00:12:26;4.57;;;4.28;;
69213;SDS011;56325;47.030;18.518;2023-07-02T00:15:01;4.85;;;4.55;;
69213;SDS011;56325;47.030;18.518;2023-07-02T00:17:36;5.30;;;4.90;;
69213;SDS011;56325;47.030;18.518;2023-07-02T00:20:13;5.60;;;5.20;;
69213;SDS011;56325;47.030;18.518;2023-07-02T00:22:51;6.70;;;4.55;;
69213;SDS011;56325;47.030;18.518;2023-07-02T00:25:27;4.85;;;4.43;;
69213;SDS011;56325;47.030;18.518;2023-07-02T00:28:02;4.53;;;4.22;;
69213;SDS011;56325;47.030;18.518;2023-07-02T00:30:36;5.03;;;4.62;;
69213;SDS011;56325;47.030;18.518;2023-07-02T00:33:11;4.60;;;4.32;;
69213;SDS011;56325;47.030;18.518;2023-07-02T00:35:45;5.07;;;4.50;;
69213;SDS011;56325;47.030;18.518;2023-07-02T00:38:21;4.82;;;4.57;;
69213;SDS011;56325;47.030;18.518;2023-07-02T00:40:56;4.80;;;4.30;;
69213;SDS011;56325;47.030;18.518;2023-07-02T00:43:30;5.93;;;4.62;;
69213;SDS011;56325;47.030;18.518;2023-07-02T00:46:05;4.68;;;4.37;;
69213;SDS011;56325;47.030;18.518;2023-07-02T00:48:40;4.35;;;4.07;;
69213;SDS011;56325;47.030;18.518;2023-07-02T00:51:16;4.95;;;4.50;;
69213;SDS011;56325;47.030;18.518;2023-07-02T00:53:53;5.07;;;4.68;;
69213;SDS011;56325;47.030;18.518;2023-07-02T00:56:29;4.53;;;4.22;;
69213;SDS011;56325;47.030;18.518;2023-07-02T00:59:03;4.60;;;4.30;;
69213;SDS011;56325;47.030;18.518;2023-07-02T01:01:39;4.93;;;4.53;;
69213;SDS011;56325;47.030;18.518;2023-07-02T01:04:14;4.60;;;4.40;;
69213;SDS011;56325;47.030;18.518;2023-07-02T01:06:50;5.10;;;4.70;;
69213;SDS011;56325;47.030;18.518;2023-07-02T01:09:31;4.75;;;4.45;;
69213;SDS011;56325;47.030;18.518;2023-07-02T01:12:07;4.65;;;4.25;;
69213;SDS011;56325;47.030;18.518;2023-07-02T01:14:46;4.55;;;4.25;;
69213;SDS011;56325;47.030;18.518;2023-07-02T01:17:25;4.43;;;4.05;;
69213;SDS011;56325;47.030;18.518;2023-07-02T01:20:13;4.82;;;4.40;;
69213;SDS011;56325;47.030;18.518;2023-07-02T01:22:48;4.25;;;4.05;;
69213;SDS011;56325;47.030;18.518;2023-07-02T01:25:24;4.28;;;4.05;;
69213;SDS011;56325;47.030;18.518;2023-07-02T01:27:59;4.35;;;3.90;;
69213;SDS011;56325;47.030;18.518;2023-07-02T01:30:35;4.80;;;4.03;;
69213;SDS011;56325;47.030;18.518;2023-07-02T01:33:14;4.07;;;3.78;;
69213;SDS011;56325;47.030;18.518;2023-07-02T01:35:50;4.20;;;3.80;;
69213;SDS011;56325;47.030;18.518;2023-07-02T01:38:25;4.60;;;4.07;;
69213;SDS011;56325;47.030;18.518;2023-07-02T01:41:00;4.00;;;3.80;;
69213;SDS011;56325;47.030;18.518;2023-07-02T01:43:35;5.15;;;3.58;;
69213;SDS011;56325;47.030;18.518;2023-07-02T01:46:09;4.12;;;3.67;;
69213;SDS011;56325;47.030;18.518;2023-07-02T01:48:44;7.28;;;4.15;;
69213;SDS011;56325;47.030;18.518;2023-07-02T01:51:19;5.65;;;4.32;;
69213;SDS011;56325;47.030;18.518;2023-07-02T01:53:54;8.32;;;4.28;;
69213;SDS011;56325;47.030;18.518;2023-07-02T01:56:28;5.10;;;4.70;;
69213;SDS011;56325;47.030;18.518;2023-07-02T01:59:04;3.75;;;3.55;;
69213;SDS011;56325;47.030;18.518;2023-07-02T02:01:39;6.97;;;4.10;;
69213;SDS011;56325;47.030;18.518;2023-07-02T02:04:14;5.45;;;4.93;;
69213;SDS011;56325;47.030;18.518;2023-07-02T02:06:50;4.55;;;3.78;;
69213;SDS011;56325;47.030;18.518;2023-07-02T02:09:25;6.80;;;3.90;;
69213;SDS011;56325;47.030;18.518;2023-07-02T02:12:01;5.75;;;3.92;;
69213;SDS011;56325;47.030;18.518;2023-07-02T02:14:35;4.30;;;3.92;;
69213;SDS011;56325;47.030;18.518;2023-07-02T02:17:10;4.20;;;3.97;;
69213;SDS011;56325;47.030;18.518;2023-07-02T02:19:44;4.15;;;3.70;;
69213;SDS011;56325;47.030;18.518;2023-07-02T02:22:20;5.05;;;3.62;;
69213;SDS011;56325;47.030;18.518;2023-07-02T02:24:55;6.20;;;3.80;;
69213;SDS011;56325;47.030;18.518;2023-07-02T02:27:30;4.15;;;3.83;;
69213;SDS011;56325;47.030;18.518;2023-07-02T02:30:05;6.15;;;3.30;;
69213;SDS011;56325;47.030;18.518;2023-07-02T02:32:42;5.05;;;3.67;;
69213;SDS011;56325;47.030;18.518;2023-07-02T02:35:16;4.60;;;4.18;;
69213;SDS011;56325;47.030;18.518;2023-07-02T02:37:52;6.32;;;3.55;;
69213;SDS011;56325;47.030;18.518;2023-07-02T02:40:27;3.65;;;3.45;;
69213;SDS011;56325;47.030;18.518;2023-07-02T02:43:02;3.83;;;3.12;;
69213;SDS011;56325;47.030;18.518;2023-07-02T02:45:36;4.45;;;4.05;;
69213;SDS011;56325;47.030;18.518;2023-07-02T02:48:11;3.45;;;3.28;;
69213;SDS011;56325;47.030;18.518;2023-07-02T02:50:45;30.60;;;3.80;;
69213;SDS011;56325;47.030;18.518;2023-07-02T02:53:22;10.38;;;4.07;;
69213;SDS011;56325;47.030;18.518;2023-07-02T02:55:57;3.87;;;3.53;;
69213;SDS011;56325;47.030;18.518;2023-07-02T02:58:31;6.40;;;3.50;;
69213;SDS011;56325;47.030;18.518;2023-07-02T03:01:06;3.28;;;3.08;;
69213;SDS011;56325;47.030;18.518;2023-07-02T03:03:44;3.50;;;3.22;;
69213;SDS011;56325;47.030;18.518;2023-07-02T03:06:18;3.25;;;2.90;;
69213;SDS011;56325;47.030;18.518;2023-07-02T03:08:55;6.10;;;3.58;;
69213;SDS011;56325;47.030;18.518;2023-07-02T03:11:29;6.37;;;3.80;;
69213;SDS011;56325;47.030;18.518;2023-07-02T03:14:04;10.60;;;3.45;;
69213;SDS011;56325;47.030;18.518;2023-07-02T03:16:38;9.77;;;3.53;;
69213;SDS011;56325;47.030;18.518;2023-07-02T03:19:13;3.40;;;3.20;;
69213;SDS011;56325;47.030;18.518;2023-07-02T03:21:48;5.68;;;3.53;;
69213;SDS011;56325;47.030;18.518;2023-07-02T03:24:25;3.30;;;3.08;;
69213;SDS011;56325;47.030;18.518;2023-07-02T03:26:59;3.95;;;3.70;;
69213;SDS011;56325;47.030;18.518;2023-07-02T03:29:34;13.27;;;3.12;;
69213;SDS011;56325;47.030;18.518;2023-07-02T03:32:10;7.68;;;3.00;;
69213;SDS011;56325;47.030;18.518;2023-07-02T03:34:45;3.70;;;3.35;;
69213;SDS011;56325;47.030;18.518;2023-07-02T03:37:20;3.87;;;3.15;;
69213;SDS011;56325;47.030;18.518;2023-07-02T03:39:56;8.95;;;4.55;;
69213;SDS011;56325;47.030;18.518;2023-07-02T03:42:32;3.10;;;3.00;;
69213;SDS011;56325;47.030;18.518;2023-07-02T03:45:07;7.72;;;4.35;;
69213;SDS011;56325;47.030;18.518;2023-07-02T03:47:42;2.95;;;2.85;;
69213;SDS011;56325;47.030;18.518;2023-07-02T03:50:17;8.02;;;3.28;;
69213;SDS011;56325;47.030;18.518;2023-07-02T03:52:51;4.45;;;3.08;;
69213;SDS011;56325;47.030;18.518;2023-07-02T03:55:27;3.40;;;3.22;;
69213;SDS011;56325;47.030;18.518;2023-07-02T03:58:02;3.17;;;2.97;;
69213;SDS011;56325;47.030;18.518;2023-07-02T04:00:36;3.08;;;2.97;;
69213;SDS011;56325;47.030;18.518;2023-07-02T04:03:11;3.12;;;2.90;;
69213;SDS011;56325;47.030;18.518;2023-07-02T04:05:46;3.05;;;2.92;;
69213;SDS011;56325;47.030;18.518;2023-07-02T04:08:21;3.30;;;3.00;;
69213;SDS011;56325;47.030;18.518;2023-07-02T04:10:58;3.25;;;3.05;;
69213;SDS011;56325;47.030;18.518;2023-07-02T04:13:33;3.15;;;3.00;;
69213;SDS011;56325;47.030;18.518;2023-07-02T04:16:07;3.00;;;2.80;;
69213;SDS011;56325;47.030;18.518;2023-07-02T04:18:42;3.30;;;2.92;;
69213;SDS011;56325;47.030;18.518;2023-07-02T04:21:16;3.55;;;3.00;;
69213;SDS011;56325;47.030;18.518;2023-07-02T04:23:51;2.80;;;2.70;;
69213;SDS011;56325;47.030;18.518;2023-07-02T04:26:27;4.12;;;2.80;;
69213;SDS011;56325;47.030;18.518;2023-07-02T04:29:22;3.22;;;2.87;;
69213;SDS011;56325;47.030;18.518;2023-07-02T04:31:56;4.60;;;3.10;;
69213;SDS011;56325;47.030;18.518;2023-07-02T04:34:31;3.10;;;2.90;;
69213;SDS011;56325;47.030;18.518;2023-07-02T04:37:06;3.10;;;3.00;;
69213;SDS011;56325;47.030;18.518;2023-07-02T04:39:43;3.80;;;2.95;;
69213;SDS011;56325;47.030;18.518;2023-07-02T04:42:19;4.22;;;3.47;;
69213;SDS011;56325;47.030;18.518;2023-07-02T04:44:53;3.08;;;2.97;;
69213;SDS011;56325;47.030;18.518;2023-07-02T04:47:28;3.37;;;2.87;;
69213;SDS011;56325;47.030;18.518;2023-07-02T04:50:03;3.15;;;3.00;;
69213;SDS011;56325;47.030;18.518;2023-07-02T04:52:39;2.80;;;2.70;;
69213;SDS011;56325;47.030;18.518;2023-07-02T04:55:14;11.43;;;2.90;;
69213;SDS011;56325;47.030;18.518;2023-07-02T04:57:50;4.57;;;2.80;;
69213;SDS011;56325;47.030;18.518;2023-07-02T05:00:24;8.40;;;2.60;;
69213;SDS011;56325;47.030;18.518;2023-07-02T05:02:59;3.42;;;3.20;;
69213;SDS011;56325;47.030;18.518;2023-07-02T05:05:34;3.80;;;3.50;;
69213;SDS011;56325;47.030;18.518;2023-07-02T05:08:08;5.22;;;3.42;;
69213;SDS011;56325;47.030;18.518;2023-07-02T05:10:43;3.45;;;3.17;;
69213;SDS011;56325;47.030;18.518;2023-07-02T05:13:19;3.15;;;3.05;;
69213;SDS011;56325;47.030;18.518;2023-07-02T05:15:54;3.47;;;3.35;;
69213;SDS011;56325;47.030;18.518;2023-07-02T05:18:28;3.80;;;3.53;;
69213;SDS011;56325;47.030;18.518;2023-07-02T05:21:03;2.87;;;2.78;;
69213;SDS011;56325;47.030;18.518;2023-07-02T05:23:37;3.37;;;2.85;;
69213;SDS011;56325;47.030;18.518;2023-07-02T05:26:12;3.33;;;3.10;;
69213;SDS011;56325;47.030;18.518;2023-07-02T05:28:47;3.00;;;2.83;;
69213;SDS011;56325;47.030;18.518;2023-07-02T05:31:22;3.90;;;3.00;;
69213;SDS011;56325;47.030;18.518;2023-07-02T05:33:57;4.40;;;2.70;;
69213;SDS011;56325;47.030;18.518;2023-07-02T05:36:31;11.60;;;10.25;;
69213;SDS011;56325;47.030;18.518;2023-07-02T05:39:07;3.28;;;2.40;;
69213;SDS011;56325;47.030;18.518;2023-07-02T05:41:41;2.95;;;2.28;;
69213;SDS011;56325;47.030;18.518;2023-07-02T05:44:17;2.60;;;2.40;;
69213;SDS011;56325;47.030;18.518;2023-07-02T05:46:52;2.90;;;2.35;;
69213;SDS011;56325;47.030;18.518;2023-07-02T05:49:26;2.65;;;2.47;;
69213;SDS011;56325;47.030;18.518;2023-07-02T05:52:01;2.83;;;2.60;;
69213;SDS011;56325;47.030;18.518;2023-07-02T05:54:38;5.68;;;2.90;;
69213;SDS011;56325;47.030;18.518;2023-07-02T05:57:14;4.55;;;4.07;;
69213;SDS011;56325;47.030;18.518;2023-07-02T05:59:49;2.47;;;2.25;;
69213;SDS011;56325;47.030;18.518;2023-07-02T06:02:54;2.35;;;2.25;;
69213;SDS011;56325;47.030;18.518;2023-07-02T06:05:29;2.50;;;2.30;;
69213;SDS011;56325;47.030;18.518;2023-07-02T06:08:04;2.35;;;2.25;;
69213;SDS011;56325;47.030;18.518;2023-07-02T06:10:38;2.40;;;2.30;;
69213;SDS011;56325;47.030;18.518;2023-07-02T06:13:13;2.75;;;2.40;;
69213;SDS011;56325;47.030;18.518;2023-07-02T06:15:48;4.07;;;2.00;;
69213;SDS011;56325;47.030;18.518;2023-07-02T06:18:24;1.85;;;1.75;;
69213;SDS011;56325;47.030;18.518;2023-07-02T06:20:59;2.37;;;2.17;;
69213;SDS011;56325;47.030;18.518;2023-07-02T06:23:39;2.28;;;2.08;;
69213;SDS011;56325;47.030;18.518;2023-07-02T06:26:15;2.47;;;2.28;;
69213;SDS011;56325;47.030;18.518;2023-07-02T06:28:49;3.65;;;2.10;;
69213;SDS011;56325;47.030;18.518;2023-07-02T06:31:24;2.15;;;2.05;;
69213;SDS011;56325;47.030;18.518;2023-07-02T06:34:00;3.58;;;1.83;;
69213;SDS011;56325;47.030;18.518;2023-07-02T06:36:35;2.42;;;2.25;;
69213;SDS011;56325;47.030;18.518;2023-07-02T06:39:09;2.10;;;2.00;;
69213;SDS011;56325;47.030;18.518;2023-07-02T06:41:44;4.03;;;2.20;;
69213;SDS011;56325;47.030;18.518;2023-07-02T06:44:21;3.35;;;2.10;;
69213;SDS011;56325;47.030;18.518;2023-07-02T06:46:56;3.15;;;1.90;;
69213;SDS011;56325;47.030;18.518;2023-07-02T06:49:32;7.72;;;2.30;;
69213;SDS011;56325;47.030;18.518;2023-07-02T06:52:07;4.62;;;2.00;;
69213;SDS011;56325;47.030;18.518;2023-07-02T06:54:41;1.90;;;1.80;;
69213;SDS011;56325;47.030;18.518;2023-07-02T06:57:16;5.10;;;4.22;;
69213;SDS011;56325;47.030;18.518;2023-07-02T06:59:50;2.60;;;2.40;;
69213;SDS011;56325;47.030;18.518;2023-07-02T07:02:25;3.50;;;3.30;;
69213;SDS011;56325;47.030;18.518;2023-07-02T07:05:01;2.10;;;2.00;;
69213;SDS011;56325;47.030;18.518;2023-07-02T07:07:37;2.70;;;2.03;;
69213;SDS011;56325;47.030;18.518;2023-07-02T07:10:11;2.53;;;2.37;;
69213;SDS011;56325;47.030;18.518;2023-07-02T07:12:46;3.42;;;2.00;;
69213;SDS011;56325;47.030;18.518;2023-07-02T07:15:20;1.80;;;1.80;;
69213;SDS011;56325;47.030;18.518;2023-07-02T07:17:55;3.62;;;2.12;;
69213;SDS011;56325;47.030;18.518;2023-07-02T07:20:31;2.08;;;1.98;;
69213;SDS011;56325;47.030;18.518;2023-07-02T07:23:05;2.50;;;2.30;;
69213;SDS011;56325;47.030;18.518;2023-07-02T07:25:40;2.20;;;2.10;;
69213;SDS011;56325;47.030;18.518;2023-07-02T07:28:15;5.30;;;1.95;;
69213;SDS011;56325;47.030;18.518;2023-07-02T07:30:49;1.65;;;1.65;;
69213;SDS011;56325;47.030;18.518;2023-07-02T07:33:24;2.00;;;1.90;;
69213;SDS011;56325;47.030;18.518;2023-07-02T07:36:00;2.10;;;2.00;;
69213;SDS011;56325;47.030;18.518;2023-07-02T07:38:35;2.40;;;2.20;;
69213;SDS011;56325;47.030;18.518;2023-07-02T07:41:09;2.97;;;1.90;;
69213;SDS011;56325;47.030;18.518;2023-07-02T07:43:44;8.25;;;1.80;;
69213;SDS011;56325;47.030;18.518;2023-07-02T07:46:18;2.00;;;1.90;;
69213;SDS011;56325;47.030;18.518;2023-07-02T07:48:56;6.12;;;2.05;;
69213;SDS011;56325;47.030;18.518;2023-07-02T07:51:32;11.12;;;2.00;;
69213;SDS011;56325;47.030;18.518;2023-07-02T07:54:08;3.72;;;2.12;;
69213;SDS011;56325;47.030;18.518;2023-07-02T07:56:43;4.10;;;1.90;;
69213;SDS011;56325;47.030;18.518;2023-07-02T07:59:18;3.80;;;1.98;;
69213;SDS011;56325;47.030;18.518;2023-07-02T08:01:52;4.55;;;2.10;;
69213;SDS011;56325;47.030;18.518;2023-07-02T08:04:27;7.18;;;2.12;;
69213;SDS011;56325;47.030;18.518;2023-07-02T08:07:03;6.35;;;1.73;;
69213;SDS011;56325;47.030;18.518;2023-07-02T08:09:39;2.00;;;1.90;;
69213;SDS011;56325;47.030;18.518;2023-07-02T08:12:13;2.20;;;1.90;;
69213;SDS011;56325;47.030;18.518;2023-07-02T08:14:48;2.33;;;2.20;;
69213;SDS011;56325;47.030;18.518;2023-07-02T08:17:23;5.40;;;2.53;;
69213;SDS011;56325;47.030;18.518;2023-07-02T08:19:58;2.30;;;2.08;;
69213;SDS011;56325;47.030;18.518;2023-07-02T08:22:33;2.62;;;2.42;;
69213;SDS011;56325;47.030;18.518;2023-07-02T08:25:08;1.83;;;1.80;;
69213;SDS011;56325;47.030;18.518;2023-07-02T08:27:42;2.03;;;1.92;;
69213;SDS011;56325;47.030;18.518;2023-07-02T08:30:17;4.55;;;2.12;;
69213;SDS011;56325;47.030;18.518;2023-07-02T08:32:51;3.35;;;1.90;;
69213;SDS011;56325;47.030;18.518;2023-07-02T08:35:27;3.97;;;2.15;;
69213;SDS011;56325;47.030;18.518;2023-07-02T08:38:03;1.87;;;1.77;;
69213;SDS011;56325;47.030;18.518;2023-07-02T08:40:38;2.08;;;1.98;;
69213;SDS011;56325;47.030;18.518;2023-07-02T08:43:13;3.33;;;2.00;;
69213;SDS011;56325;47.030;18.518;2023-07-02T08:45:48;1.92;;;1.83;;
69213;SDS011;56325;47.030;18.518;2023-07-02T08:48:23;1.92;;;1.83;;
69213;SDS011;56325;47.030;18.518;2023-07-02T08:50:59;1.77;;;1.77;;
69213;SDS011;56325;47.030;18.518;2023-07-02T08:53:35;7.80;;;2.28;;
69213;SDS011;56325;47.030;18.518;2023-07-02T08:56:10;4.87;;;2.03;;
69213;SDS011;56325;47.030;18.518;2023-07-02T08:58:45;2.28;;;2.08;;
69213;SDS011;56325;47.030;18.518;2023-07-02T09:01:19;4.62;;;2.12;;
69213;SDS011;56325;47.030;18.518;2023-07-02T09:03:58;2.03;;;1.92;;
69213;SDS011;56325;47.030;18.518;2023-07-02T09:06:34;3.58;;;2.17;;
69213;SDS011;56325;47.030;18.518;2023-07-02T09:09:09;17.17;;;2.00;;
69213;SDS011;56325;47.030;18.518;2023-07-02T09:11:47;2.10;;;2.00;;
69213;SDS011;56325;47.030;18.518;2023-07-02T09:14:23;2.92;;;2.83;;
69213;SDS011;56325;47.030;18.518;2023-07-02T09:17:03;2.35;;;2.25;;
69213;SDS011;56325;47.030;18.518;2023-07-02T09:22:23;2.53;;;2.28;;
69213;SDS011;56325;47.030;18.518;2023-07-02T09:25:00;3.50;;;1.90;;
69213;SDS011;56325;47.030;18.518;2023-07-02T09:27:35;1.92;;;1.83;;
69213;SDS011;56325;47.030;18.518;2023-07-02T09:30:12;3.35;;;1.75;;
69213;SDS011;56325;47.030;18.518;2023-07-02T09:32:49;3.83;;;1.77;;
69213;SDS011;56325;47.030;18.518;2023-07-02T09:35:23;2.80;;;2.00;;
69213;SDS011;56325;47.030;18.518;2023-07-02T09:37:58;3.25;;;2.30;;
69213;SDS011;56325;47.030;18.518;2023-07-02T09:40:34;2.58;;;1.77;;
69213;SDS011;56325;47.030;18.518;2023-07-02T09:43:11;2.17;;;2.08;;
69213;SDS011;56325;47.030;18.518;2023-07-02T09:45:47;5.25;;;1.65;;
69213;SDS011;56325;47.030;18.518;2023-07-02T09:48:24;4.65;;;2.33;;
69213;SDS011;56325;47.030;18.518;2023-07-02T09:51:01;2.40;;;1.75;;
69213;SDS011;56325;47.030;18.518;2023-07-02T09:53:37;2.40;;;2.20;;
69213;SDS011;56325;47.030;18.518;2023-07-02T09:56:13;6.82;;;1.92;;
69213;SDS011;56325;47.030;18.518;2023-07-02T09:58:48;2.90;;;1.75;;
69213;SDS011;56325;47.030;18.518;2023-07-02T10:01:22;4.45;;;2.03;;
69213;SDS011;56325;47.030;18.518;2023-07-02T10:03:57;2.15;;;1.95;;
69213;SDS011;56325;47.030;18.518;2023-07-02T10:06:32;2.17;;;1.83;;
69213;SDS011;56325;47.030;18.518;2023-07-02T10:09:18;3.30;;;1.77;;
69213;SDS011;56325;47.030;18.518;2023-07-02T10:11:55;1.90;;;1.80;;
69213;SDS011;56325;47.030;18.518;2023-07-02T10:14:40;1.73;;;1.60;;
69213;SDS011;56325;47.030;18.518;2023-07-02T10:17:24;1.90;;;1.80;;
69213;SDS011;56325;47.030;18.518;2023-07-02T10:20:02;1.90;;;1.80;;
69213;SDS011;56325;47.030;18.518;2023-07-02T10:22:42;2.53;;;2.42;;
69213;SDS011;56325;47.030;18.518;2023-07-02T10:25:23;1.40;;;1.40;;
69213;SDS011;56325;47.030;18.518;2023-07-02T10:28:00;3.25;;;1.65;;
69213;SDS011;56325;47.030;18.518;2023-07-02T10:30:36;3.10;;;2.05;;
69213;SDS011;56325;47.030;18.518;2023-07-02T10:33:12;5.35;;;1.77;;
69213;SDS011;56325;47.030;18.518;2023-07-02T10:35:49;2.00;;;1.90;;
69213;SDS011;56325;47.030;18.518;2023-07-02T10:38:24;2.30;;;2.12;;
69213;SDS011;56325;47.030;18.518;2023-07-02T10:40:59;3.70;;;1.83;;
69213;SDS011;56325;47.030;18.518;2023-07-02T10:43:35;1.70;;;1.60;;
69213;SDS011;56325;47.030;18.518;2023-07-02T10:46:10;3.12;;;2.20;;
69213;SDS011;56325;47.030;18.518;2023-07-02T10:48:53;2.85;;;1.67;;
69213;SDS011;56325;47.030;18.518;2023-07-02T10:51:28;1.73;;;1.62;;
69213;SDS011;56325;47.030;18.518;2023-07-02T10:54:02;1.65;;;1.55;;
69213;SDS011;56325;47.030;18.518;2023-07-02T10:56:38;2.83;;;1.60;;
69213;SDS011;56325;47.030;18.518;2023-07-02T10:59:24;1.67;;;1.58;;
69213;SDS011;56325;47.030;18.518;2023-07-02T11:01:59;2.70;;;1.45;;
69213;SDS011;56325;47.030;18.518;2023-07-02T11:04:36;1.45;;;1.20;;
69213;SDS011;56325;47.030;18.518;2023-07-02T11:07:13;1.37;;;1.27;;
69213;SDS011;56325;47.030;18.518;2023-07-02T11:09:51;5.85;;;1.30;;
69213;SDS011;56325;47.030;18.518;2023-07-02T11:12:28;1.20;;;1.20;;
69213;SDS011;56325;47.030;18.518;2023-07-02T11:15:08;1.65;;;1.60;;
69213;SDS011;56325;47.030;18.518;2023-07-02T11:20:17;1.30;;;1.30;;
69213;SDS011;56325;47.030;18.518;2023-07-02T11:22:52;1.37;;;1.37;;
69213;SDS011;56325;47.030;18.518;2023-07-02T11:25:26;1.40;;;1.40;;
69213;SDS011;56325;47.030;18.518;2023-07-02T11:28:02;1.27;;;1.17;;
69213;SDS011;56325;47.030;18.518;2023-07-02T11:30:45;2.15;;;1.35;;
69213;SDS011;56325;47.030;18.518;2023-07-02T11:33:21;1.23;;;1.23;;
69213;SDS011;56325;47.030;18.518;2023-07-02T11:36:07;1.30;;;1.30;;
69213;SDS011;56325;47.030;18.518;2023-07-02T11:38:42;1.20;;;1.20;;
69213;SDS011;56325;47.030;18.518;2023-07-02T11:41:16;6.25;;;1.48;;
69213;SDS011;56325;47.030;18.518;2023-07-02T11:43:54;1.12;;;1.12;;
69213;SDS011;56325;47.030;18.518;2023-07-02T11:46:29;1.17;;;1.17;;
69213;SDS011;56325;47.030;18.518;2023-07-02T11:49:04;1.85;;;1.58;;
69213;SDS011;56325;47.030;18.518;2023-07-02T11:51:41;1.17;;;1.08;;
69213;SDS011;56325;47.030;18.518;2023-07-02T11:54:21;0.93;;;0.93;;
69213;SDS011;56325;47.030;18.518;2023-07-02T11:56:55;1.10;;;1.10;;
69213;SDS011;56325;47.030;18.518;2023-07-02T11:59:30;5.47;;;1.50;;
69213;SDS011;56325;47.030;18.518;2023-07-02T12:02:08;5.65;;;1.33;;
69213;SDS011;56325;47.030;18.518;2023-07-02T12:04:46;1.52;;;1.42;;
69213;SDS011;56325;47.030;18.518;2023-07-02T12:07:21;1.33;;;1.27;;
69213;SDS011;56325;47.030;18.518;2023-07-02T12:09:55;1.10;;;1.10;;
69213;SDS011;56325;47.030;18.518;2023-07-02T12:12:30;1.40;;;1.30;;
69213;SDS011;56325;47.030;18.518;2023-07-02T12:15:05;3.72;;;1.60;;
69213;SDS011;56325;47.030;18.518;2023-07-02T12:17:41;2.08;;;1.98;;
69213;SDS011;56325;47.030;18.518;2023-07-02T12:20:16;1.65;;;1.55;;
69213;SDS011;56325;47.030;18.518;2023-07-02T12:22:50;1.95;;;1.30;;
69213;SDS011;56325;47.030;18.518;2023-07-02T12:25:25;1.58;;;1.48;;
69213;SDS011;56325;47.030;18.518;2023-07-02T12:28:01;1.35;;;1.35;;
69213;SDS011;56325;47.030;18.518;2023-07-02T12:30:36;2.78;;;1.40;;
69213;SDS011;56325;47.030;18.518;2023-07-02T12:33:12;1.52;;;1.42;;
69213;SDS011;56325;47.030;18.518;2023-07-02T12:38:24;1.70;;;1.60;;
69213;SDS011;56325;47.030;18.518;2023-07-02T12:40:59;2.50;;;1.30;;
69213;SDS011;56325;47.030;18.518;2023-07-02T12:43:33;1.52;;;1.48;;
69213;SDS011;56325;47.030;18.518;2023-07-02T12:46:08;1.12;;;1.12;;
69213;SDS011;56325;47.030;18.518;2023-07-02T12:48:44;1.62;;;1.37;;
69213;SDS011;56325;47.030;18.518;2023-07-02T12:51:19;1.05;;;1.05;;
69213;SDS011;56325;47.030;18.518;2023-07-02T12:53:53;1.17;;;1.17;;
69213;SDS011;56325;47.030;18.518;2023-07-02T12:56:28;3.45;;;1.48;;
69213;SDS011;56325;47.030;18.518;2023-07-02T12:59:03;1.77;;;1.27;;
69213;SDS011;56325;47.030;18.518;2023-07-02T13:01:37;1.10;;;1.10;;
69213;SDS011;56325;47.030;18.518;2023-07-02T13:04:13;3.10;;;1.30;;
69213;SDS011;56325;47.030;18.518;2023-07-02T13:06:49;0.80;;;0.80;;
69213;SDS011;56325;47.030;18.518;2023-07-02T13:09:23;0.98;;;0.98;;
69213;SDS011;56325;47.030;18.518;2023-07-02T13:11:58;0.77;;;0.77;;
69213;SDS011;56325;47.030;18.518;2023-07-02T13:14:33;1.55;;;0.95;;
69213;SDS011;56325;47.030;18.518;2023-07-02T13:17:08;1.10;;;1.02;;
69213;SDS011;56325;47.030;18.518;2023-07-02T13:19:43;0.80;;;0.80;;
69213;SDS011;56325;47.030;18.518;2023-07-02T13:22:18;0.80;;;0.80;;
69213;SDS011;56325;47.030;18.518;2023-07-02T13:24:53;1.40;;;1.02;;
69213;SDS011;56325;47.030;18.518;2023-07-02T13:27:27;0.62;;;0.62;;
69213;SDS011;56325;47.030;18.518;2023-07-02T13:30:02;1.25;;;0.98;;
69213;SDS011;56325;47.030;18.518;2023-07-02T13:32:37;0.90;;;0.90;;
69213;SDS011;56325;47.030;18.518;2023-07-02T13:35:13;4.62;;;1.27;;
69213;SDS011;56325;47.030;18.518;2023-07-02T13:37:47;0.65;;;0.65;;
69213;SDS011;56325;47.030;18.518;2023-07-02T13:40:22;0.50;;;0.50;;
69213;SDS011;56325;47.030;18.518;2023-07-02T13:42:57;0.45;;;0.45;;
69213;SDS011;56325;47.030;18.518;2023-07-02T13:45:31;4.28;;;0.60;;
69213;SDS011;56325;47.030;18.518;2023-07-02T13:48:06;3.75;;;0.93;;
69213;SDS011;56325;47.030;18.518;2023-07-02T13:50:42;1.55;;;0.70;;
69213;SDS011;56325;47.030;18.518;2023-07-02T13:53:17;0.62;;;0.62;;
69213;SDS011;56325;47.030;18.518;2023-07-02T13:55:51;0.60;;;0.60;;
69213;SDS011;56325;47.030;18.518;2023-07-02T13:58:26;1.95;;;0.62;;
69213;SDS011;56325;47.030;18.518;2023-07-02T14:02:59;4.28;;;0.90;;
69213;SDS011;56325;47.030;18.518;2023-07-02T14:05:35;0.57;;;0.57;;
69213;SDS011;56325;47.030;18.518;2023-07-02T14:08:09;1.10;;;0.60;;
69213;SDS011;56325;47.030;18.518;2023-07-02T14:10:44;0.70;;;0.70;;
69213;SDS011;56325;47.030;18.518;2023-07-02T14:13:19;0.65;;;0.65;;
69213;SDS011;56325;47.030;18.518;2023-07-02T14:15:53;0.80;;;0.80;;
69213;SDS011;56325;47.030;18.518;2023-07-02T14:18:29;0.60;;;0.60;;
69213;SDS011;56325;47.030;18.518;2023-07-02T14:21:04;0.50;;;0.50;;
69213;SDS011;56325;47.030;18.518;2023-07-02T14:23:38;2.22;;;0.60;;
69213;SDS011;56325;47.030;18.518;2023-07-02T14:26:13;1.02;;;0.60;;
69213;SDS011;56325;47.030;18.518;2023-07-02T14:28:48;1.15;;;0.88;;
69213;SDS011;56325;47.030;18.518;2023-07-02T14:31:23;0.85;;;0.62;;
69213;SDS011;56325;47.030;18.518;2023-07-02T14:33:58;0.68;;;0.68;;
69213;SDS011;56325;47.030;18.518;2023-07-02T14:36:33;2.40;;;0.55;;
69213;SDS011;56325;47.030;18.518;2023-07-02T14:39:08;3.42;;;0.70;;
69213;SDS011;56325;47.030;18.518;2023-07-02T14:41:42;3.95;;;0.75;;
69213;SDS011;56325;47.030;18.518;2023-07-02T14:44:17;0.70;;;0.70;;
69213;SDS011;56325;47.030;18.518;2023-07-02T14:46:51;0.80;;;0.80;;
69213;SDS011;56325;47.030;18.518;2023-07-02T14:49:27;1.27;;;0.80;;
69213;SDS011;56325;47.030;18.518;2023-07-02T14:52:02;4.30;;;0.88;;
69213;SDS011;56325;47.030;18.518;2023-07-02T14:54:37;0.70;;;0.70;;
69213;SDS011;56325;47.030;18.518;2023-07-02T14:57:12;0.60;;;0.60;;
69213;SDS011;56325;47.030;18.518;2023-07-02T14:59:46;0.95;;;0.95;;
69213;SDS011;56325;47.030;18.518;2023-07-02T15:02:23;1.40;;;0.60;;
69213;SDS011;56325;47.030;18.518;2023-07-02T15:04:59;0.80;;;0.80;;
69213;SDS011;56325;47.030;18.518;2023-07-02T15:07:34;1.48;;;0.70;;
69213;SDS011;56325;47.030;18.518;2023-07-02T15:10:08;2.53;;;0.80;;
69213;SDS011;56325;47.030;18.518;2023-07-02T15:12:43;0.50;;;0.50;;
69213;SDS011;56325;47.030;18.518;2023-07-02T15:15:17;0.68;;;0.68;;
69213;SDS011;56325;47.030;18.518;2023-07-02T15:17:52;2.53;;;1.05;;
69213;SDS011;56325;47.030;18.518;2023-07-02T15:20:28;3.03;;;0.80;;
69213;SDS011;56325;47.030;18.518;2023-07-02T15:23:02;0.88;;;0.88;;
69213;SDS011;56325;47.030;18.518;2023-07-02T15:25:37;1.58;;;0.90;;
69213;SDS011;56325;47.030;18.518;2023-07-02T15:28:12;3.72;;;1.20;;
69213;SDS011;56325;47.030;18.518;2023-07-02T15:30:50;1.37;;;1.10;;
69213;SDS011;56325;47.030;18.518;2023-07-02T15:33:26;4.03;;;0.90;;